Time;durP1;ratioP1;P1;durP2;ratioP2;P2;SDS_P1;SDS_P2;PMS_P1;PMS_P2;Temp;Humidity;BMP_temperature;BMP_pressure;BME280_temperature;BME280_humidity;BME280_pressure;Samples;Min_cycle;Max_cycle;Signal;HPM_P1;HPM_P2
2024/03/05 00:00:09;;;;;;;22.33;18.42;;;;;;;9.35;89.16;98538.31;5072075;28;20028;-48
2024/03/05 00:02:38;;;;;;;18.77;13.73;;;;;;;9.62;87.34;98535.81;5073190;28;20028;-49
2024/03/05 00:05:06;;;;;;;37.08;30.45;;;;;;;9.82;85.97;98541.09;5072947;28;20028;-49
2024/03/05 00:07:33;;;;;;;42.45;37.92;;;;;;;9.83;82.97;98539.28;5072937;28;20257;-49
2024/03/05 00:09:59;;;;;;;84.93;75.88;;;;;;;9.80;82.99;98535.25;5072048;28;20031;-49
2024/03/05 00:12:25;;;;;;;27.02;21.73;;;;;;;9.83;81.06;98528.78;5071571;28;20409;-49
2024/03/05 00:14:55;;;;;;;20.75;13.35;;;;;;;9.98;82.82;98526.81;5071731;28;20074;-49
2024/03/05 00:17:23;;;;;;;23.70;19.42;;;;;;;10.46;83.14;98533.69;5071477;28;20512;-49
2024/03/05 00:19:53;;;;;;;18.95;13.13;;;;;;;10.84;79.88;98531.19;5071449;28;20028;-49
2024/03/05 00:22:19;;;;;;;15.40;12.73;;;;;;;10.93;78.68;98532.59;5072816;28;20391;-49
2024/03/05 00:24:45;;;;;;;13.75;11.45;;;;;;;10.72;77.26;98536.25;5072952;28;20146;-49
2024/03/05 00:27:11;;;;;;;143.90;117.57;;;;;;;10.35;78.22;98545.59;5072638;28;20051;-49
2024/03/05 00:29:37;;;;;;;32.40;26.58;;;;;;;10.06;79.05;98549.38;5072605;28;20048;-49
2024/03/05 00:32:03;;;;;;;14.82;10.90;;;;;;;9.78;79.36;98545.13;5072516;28;20401;-49
2024/03/05 00:34:28;;;;;;;17.02;15.23;;;;;;;9.53;80.46;98544.84;5072730;28;20027;-49
2024/03/05 00:36:55;;;;;;;22.02;15.55;;;;;;;9.26;81.10;98544.75;5072263;28;20028;-50
2024/03/05 00:39:21;;;;;;;17.65;13.77;;;;;;;9.08;83.14;98540.03;5071121;28;20028;-49
2024/03/05 00:41:46;;;;;;;20.90;15.20;;;;;;;8.72;84.31;98546.28;5071039;28;20058;-49
2024/03/05 00:44:18;;;;;;;15.48;13.80;;;;;;;8.35;87.03;98542.97;5072285;28;20471;-49
2024/03/05 00:46:44;;;;;;;16.33;12.10;;;;;;;8.19;88.61;98549.28;5071255;28;20020;-49
2024/03/05 00:49:10;;;;;;;31.23;28.17;;;;;;;7.98;90.60;98557.13;5072510;28;20032;-48
2024/03/05 00:51:35;;;;;;;36.17;32.65;;;;;;;7.81;91.92;98553.94;5070929;28;20028;-49
2024/03/05 00:54:01;;;;;;;78.20;70.85;;;;;;;7.91;94.49;98553.66;5072259;28;20020;-48
2024/03/05 00:56:27;;;;;;;40.25;36.20;;;;;;;7.95;95.59;98553.06;5070847;28;20021;-49
2024/03/05 00:58:53;;;;;;;30.30;26.48;;;;;;;7.98;97.02;98554.50;5070744;28;20024;-48
2024/03/05 01:01:19;;;;;;;27.65;23.17;;;;;;;8.01;97.61;98554.16;5070790;28;20051;-49
2024/03/05 01:03:47;;;;;;;16.58;14.93;;;;;;;8.02;96.95;98547.91;5072050;28;20027;-48
2024/03/05 01:06:13;;;;;;;15.20;12.27;;;;;;;8.02;96.64;98560.16;5071984;28;20090;-49
2024/03/05 01:08:39;;;;;;;16.17;14.32;;;;;;;7.83;97.50;98564.19;5072240;28;20017;-48
2024/03/05 01:11:04;;;;;;;16.85;11.85;;;;;;;7.68;99.32;98579.91;5071998;28;20048;-49
2024/03/05 01:13:30;;;;;;;16.42;12.15;;;;;;;7.72;100.00;98575.94;5071918;28;20379;-49
2024/03/05 01:15:56;;;;;;;17.70;13.40;;;;;;;7.86;100.00;98577.69;5072385;28;20024;-49
2024/03/05 01:18:22;;;;;;;15.27;12.25;;;;;;;8.11;100.00;98567.69;5070540;28;20037;-49
2024/03/05 01:20:48;;;;;;;15.02;11.43;;;;;;;8.33;100.00;98575.50;5071910;28;20024;-49
2024/03/05 01:23:14;;;;;;;15.10;11.48;;;;;;;8.51;100.00;98573.31;5071923;28;20405;-49
2024/03/05 01:25:39;;;;;;;10.73;8.95;;;;;;;8.63;100.00;98567.53;5069838;28;20032;-49
2024/03/05 01:28:07;;;;;;;12.02;7.50;;;;;;;8.74;100.00;98575.66;5071852;28;20031;-49
2024/03/05 01:30:34;;;;;;;11.68;8.68;;;;;;;8.88;100.00;98581.81;5071665;28;20028;-49
2024/03/05 01:33:05;;;;;;;9.80;8.40;;;;;;;8.96;100.00;98570.38;5070501;28;20079;-49
2024/03/05 01:35:31;;;;;;;13.82;9.80;;;;;;;9.05;100.00;98571.81;5071680;28;20040;-49
2024/03/05 01:37:56;;;;;;;9.60;7.07;;;;;;;9.03;100.00;98570.41;5071430;28;20112;-49
2024/03/05 01:40:22;;;;;;;12.30;8.07;;;;;;;9.00;100.00;98582.06;5070319;28;20406;-49
2024/03/05 01:42:48;;;;;;;14.13;8.77;;;;;;;9.04;100.00;98582.50;5070393;28;20452;-49
2024/03/05 01:45:15;;;;;;;10.63;7.88;;;;;;;9.08;100.00;98588.97;5070364;28;20050;-49
2024/03/05 01:47:41;;;;;;;7.00;6.30;;;;;;;9.15;100.00;98589.78;5071617;28;20554;-49
2024/03/05 01:50:09;;;;;;;9.48;7.68;;;;;;;9.25;100.00;98586.84;5071594;28;20116;-49
2024/03/05 01:52:36;;;;;;;9.15;7.13;;;;;;;9.32;100.00;98591.09;5071567;28;20028;-49
2024/03/05 01:55:10;;;;;;;8.20;6.82;;;;;;;9.42;100.00;98589.91;5071538;28;20021;-48
2024/03/05 01:57:37;;;;;;;9.52;7.40;;;;;;;9.39;100.00;98594.53;5071412;28;20032;-48
2024/03/05 02:00:03;;;;;;;11.00;9.50;;;;;;;9.33;100.00;98590.09;5071480;28;20032;-48
2024/03/05 02:02:29;;;;;;;13.90;10.23;;;;;;;9.40;100.00;98593.56;5071477;28;20504;-49
2024/03/05 02:04:57;;;;;;;15.45;11.55;;;;;;;9.46;100.00;98604.28;5071428;28;20024;-48
2024/03/05 02:07:24;;;;;;;31.67;28.55;;;;;;;9.39;100.00;98594.53;5070114;28;20486;-49
2024/03/05 02:09:52;;;;;;;8.80;7.90;;;;;;;9.46;100.00;98589.34;5071400;28;20028;-49
2024/03/05 02:12:18;;;;;;;10.70;9.57;;;;;;;9.54;100.00;98589.19;5071303;28;20030;-49
2024/03/05 02:14:43;;;;;;;16.90;13.80;;;;;;;9.59;100.00;98583.34;5070295;28;20028;-49
2024/03/05 02:17:12;;;;;;;15.23;10.63;;;;;;;9.59;100.00;98591.22;5071552;28;20033;-48
2024/03/05 02:19:46;;;;;;;14.10;11.40;;;;;;;9.51;100.00;98588.75;5071450;28;20028;-48
2024/03/05 02:22:11;;;;;;;17.73;12.43;;;;;;;9.46;100.00;98578.88;5070216;28;20039;-48
2024/03/05 02:24:38;;;;;;;11.27;8.38;;;;;;;9.54;100.00;98575.28;5071207;28;20100;-48
2024/03/05 02:27:06;;;;;;;13.18;9.43;;;;;;;9.46;97.07;98564.97;5071239;28;20028;-48
2024/03/05 02:29:38;;;;;;;10.68;8.02;;;;;;;9.48;97.55;98555.91;5071110;28;20031;-49
2024/03/05 02:32:08;;;;;;;10.85;8.30;;;;;;;9.96;99.19;98560.25;5071142;28;20111;-49
2024/03/05 02:34:34;;;;;;;27.25;24.67;;;;;;;10.15;94.66;98559.47;5071277;28;20025;-49
2024/03/05 02:37:00;;;;;;;17.73;15.52;;;;;;;10.18;89.29;98569.59;5071622;28;20063;-50
2024/03/05 02:39:27;;;;;;;13.35;9.23;;;;;;;10.11;85.84;98565.34;5074626;28;20077;-49
2024/03/05 02:41:56;;;;;;;12.90;8.77;;;;;;;10.04;84.04;98557.47;5074592;28;20040;-49
2024/03/05 02:44:22;;;;;;;11.98;7.15;;;;;;;10.25;87.36;98542.56;5073632;28;20570;-49
2024/03/05 02:46:50;;;;;;;11.70;8.38;;;;;;;10.30;82.35;98545.38;5074899;28;20028;-49
2024/03/05 02:49:16;;;;;;;14.70;8.55;;;;;;;9.92;82.43;98549.38;5074914;28;20474;-49
2024/03/05 02:51:42;;;;;;;12.30;9.25;;;;;;;9.51;82.83;98552.88;5073428;28;20050;-49
2024/03/05 02:54:07;;;;;;;11.05;9.45;;;;;;;9.25;83.03;98553.59;5074514;28;20036;-49
2024/03/05 02:56:33;;;;;;;10.70;8.25;;;;;;;9.03;84.20;98565.16;5074721;28;20411;-49
2024/03/05 02:58:59;;;;;;;13.40;8.38;;;;;;;9.05;85.71;98565.78;5074286;28;20025;-49
2024/03/05 03:01:25;;;;;;;10.23;7.93;;;;;;;9.23;86.37;98554.78;5074356;28;20028;-49
2024/03/05 03:03:50;;;;;;;12.70;9.00;;;;;;;9.22;83.42;98550.56;5074393;28;20043;-49
2024/03/05 03:06:19;;;;;;;12.98;10.23;;;;;;;9.04;83.81;98553.72;5074323;28;20028;-49
2024/03/05 03:08:45;;;;;;;13.50;10.05;;;;;;;8.99;83.58;98557.72;5072952;28;20556;-49
2024/03/05 03:11:17;;;;;;;14.15;10.13;;;;;;;8.98;85.04;98557.91;5072950;28;20032;-49
2024/03/05 03:13:46;;;;;;;12.25;10.23;;;;;;;9.03;84.63;98549.47;5074179;28;20028;-49
2024/03/05 03:16:13;;;;;;;12.82;9.95;;;;;;;9.02;84.04;98551.28;5072840;28;20111;-49
2024/03/05 03:18:39;;;;;;;13.52;10.07;;;;;;;8.92;83.25;98546.38;5074063;28;20233;-49
2024/03/05 03:21:05;;;;;;;14.40;10.52;;;;;;;8.67;84.16;98551.28;5073034;28;20572;-49
2024/03/05 03:23:31;;;;;;;12.50;11.10;;;;;;;8.47;85.75;98553.75;5073971;28;20394;-49
2024/03/05 03:25:58;;;;;;;17.33;15.40;;;;;;;8.54;87.57;98553.78;5072691;28;20032;-49
2024/03/05 03:28:24;;;;;;;15.35;10.40;;;;;;;8.66;86.38;98546.25;5074061;28;20055;-49
2024/03/05 03:30:55;;;;;;;11.32;9.25;;;;;;;8.68;86.53;98552.09;5072801;28;20024;-49
2024/03/05 03:33:23;;;;;;;13.20;8.93;;;;;;;8.91;87.17;98554.44;5073880;28;20025;-49
2024/03/05 03:35:49;;;;;;;12.60;10.73;;;;;;;9.09;86.14;98552.09;5072678;28;20116;-49
2024/03/05 03:38:15;;;;;;;11.38;8.65;;;;;;;9.31;82.73;98568.53;5073369;28;20124;-49
2024/03/05 03:40:43;;;;;;;10.13;8.48;;;;;;;9.28;81.27;98566.31;5073574;28;20063;-49
2024/03/05 03:43:14;;;;;;;14.35;9.48;;;;;;;9.16;82.98;98578.34;5072313;28;20024;-49
2024/03/05 03:45:40;;;;;;;15.50;10.68;;;;;;;9.06;85.91;98588.34;5073572;28;20052;-49
2024/03/05 03:48:06;;;;;;;11.70;9.32;;;;;;;9.08;88.23;98591.59;5073049;28;20028;-49
2024/03/05 03:50:37;;;;;;;13.18;9.43;;;;;;;9.14;90.02;98580.34;5073370;28;20055;-49
2024/03/05 03:53:04;;;;;;;16.15;11.18;;;;;;;9.24;91.52;98591.28;5073380;28;20464;-49
2024/03/05 03:55:30;;;;;;;17.13;10.63;;;;;;;9.44;92.67;98599.22;5073214;28;20494;-49
2024/03/05 03:57:56;;;;;;;15.75;9.82;;;;;;;9.55;93.23;98593.41;5071870;28;20028;-49
2024/03/05 04:00:23;;;;;;;16.60;12.02;;;;;;;9.77;94.06;98594.09;5073582;28;20028;-49
2024/03/05 04:02:49;;;;;;;18.45;12.63;;;;;;;9.98;94.16;98592.34;5073242;28;20501;-49
2024/03/05 04:05:16;;;;;;;16.38;13.07;;;;;;;10.03;92.44;98583.88;5072196;28;20109;-49
2024/03/05 04:07:42;;;;;;;16.48;11.93;;;;;;;9.98;91.61;98585.28;5072113;28;20546;-49
2024/03/05 04:10:10;;;;;;;13.38;12.07;;;;;;;9.83;90.53;98584.63;5073341;28;20032;-49
2024/03/05 04:12:38;;;;;;;16.73;12.43;;;;;;;9.65;91.24;98589.63;5073014;28;20031;-49
2024/03/05 04:15:05;;;;;;;22.02;13.02;;;;;;;9.57;92.46;98598.47;5072925;28;20028;-49
2024/03/05 04:17:30;;;;;;;19.13;16.52;;;;;;;9.59;93.36;98594.63;5072835;28;20036;-49
2024/03/05 04:19:56;;;;;;;24.02;17.15;;;;;;;9.59;93.42;98606.94;5072921;28;20506;-49
2024/03/05 04:22:22;;;;;;;18.60;13.70;;;;;;;9.54;93.88;98604.91;5072863;28;20071;-49
2024/03/05 04:24:56;;;;;;;29.55;21.80;;;;;;;9.71;95.37;98607.19;5072743;28;20029;-48
2024/03/05 04:27:24;;;;;;;32.22;28.77;;;;;;;9.88;94.91;98618.09;5072961;28;20028;-49
2024/03/05 04:29:57;;;;;;;21.63;18.20;;;;;;;9.87;94.40;98613.88;5072700;28;20020;-49
2024/03/05 04:32:26;;;;;;;22.48;18.13;;;;;;;9.91;94.53;98613.28;5072768;28;20050;-49
2024/03/05 04:35:01;;;;;;;18.55;14.20;;;;;;;9.91;94.14;98613.28;5072562;28;20051;-49
2024/03/05 04:37:30;;;;;;;20.10;18.08;;;;;;;9.89;94.03;98614.50;5072216;28;20519;-49
2024/03/05 04:39:57;;;;;;;15.00;13.07;;;;;;;9.84;93.65;98616.88;5072463;28;20036;-49
2024/03/05 04:42:24;;;;;;;17.33;13.13;;;;;;;9.73;93.83;98616.44;5072172;28;20032;-49
2024/03/05 04:44:51;;;;;;;20.27;13.98;;;;;;;9.49;93.52;98622.19;5071030;28;20039;-49
2024/03/05 04:47:17;;;;;;;15.00;13.35;;;;;;;9.50;94.16;98631.69;5072348;28;20119;-48
2024/03/05 04:49:43;;;;;;;15.18;12.48;;;;;;;9.58;94.38;98623.66;5070912;28;20202;-49
2024/03/05 04:52:10;;;;;;;19.40;17.40;;;;;;;9.49;93.25;98611.72;5071207;28;20029;-49
2024/03/05 04:54:36;;;;;;;18.55;14.02;;;;;;;9.20;92.29;98621.47;5072187;28;20056;-49
2024/03/05 04:57:04;;;;;;;21.20;16.73;;;;;;;9.08;93.39;98623.00;5071112;28;20028;-49
2024/03/05 04:59:29;;;;;;;15.88;11.75;;;;;;;9.16;94.31;98620.22;5071265;28;20048;-49
2024/03/05 05:01:55;;;;;;;18.95;11.85;;;;;;;8.99;91.61;98611.84;5072011;28;20064;-49
2024/03/05 05:04:21;;;;;;;12.55;11.05;;;;;;;8.69;88.50;98613.84;5071084;28;20028;-49
2024/03/05 05:06:46;;;;;;;11.57;10.00;;;;;;;8.52;87.93;98608.09;5071015;28;20085;-49
2024/03/05 05:09:15;;;;;;;10.45;8.80;;;;;;;8.54;86.08;98600.88;5071950;28;20491;-49
2024/03/05 05:11:41;;;;;;;12.07;10.85;;;;;;;8.46;85.30;98591.34;5070838;28;20027;-49
2024/03/05 05:14:07;;;;;;;12.63;9.43;;;;;;;8.25;85.99;98602.63;5070972;28;20047;-49
2024/03/05 05:16:34;;;;;;;12.57;9.70;;;;;;;8.18;86.56;98599.13;5071884;28;20028;-49
2024/03/05 05:19:00;;;;;;;15.32;12.50;;;;;;;8.24;87.82;98602.81;5071822;28;20032;-49
2024/03/05 05:21:26;;;;;;;28.00;25.00;;;;;;;8.28;87.34;98602.22;5070518;28;20029;-49
2024/03/05 05:23:51;;;;;;;17.80;12.43;;;;;;;8.28;87.17;98604.84;5071896;28;20025;-49
2024/03/05 05:26:17;;;;;;;14.55;9.48;;;;;;;8.23;86.50;98606.41;5071784;28;20099;-49
2024/03/05 05:28:43;;;;;;;14.40;10.27;;;;;;;8.16;86.77;98607.16;5071796;28;20405;-49
2024/03/05 05:31:23;;;;;;;12.65;9.75;;;;;;;7.93;87.26;98619.59;5071795;28;20031;-49
2024/03/05 05:33:49;;;;;;;14.60;8.85;;;;;;;7.71;88.44;98631.81;5071753;28;20406;-49
2024/03/05 05:36:14;;;;;;;82.15;74.28;;;;;;;7.52;89.58;98627.94;5070670;28;20028;-48
2024/03/05 05:38:41;;;;;;;34.15;25.08;;;;;;;7.45;91.37;98632.28;5070156;28;20570;-49
2024/03/05 05:41:07;;;;;;;15.75;10.50;;;;;;;7.39;92.04;98639.84;5070348;28;20380;-49
2024/03/05 05:43:33;;;;;;;14.90;10.30;;;;;;;7.28;92.88;98632.44;5071661;28;20040;-49
2024/03/05 05:46:03;;;;;;;14.57;12.82;;;;;;;7.39;94.69;98624.16;5070355;28;20032;-49
2024/03/05 05:48:28;;;;;;;16.75;14.95;;;;;;;7.67;95.67;98639.19;5071529;28;20027;-49
2024/03/05 05:51:01;;;;;;;15.93;13.98;;;;;;;7.76;95.13;98630.25;5070563;28;20020;-49
2024/03/05 05:53:27;;;;;;;12.82;11.48;;;;;;;7.55;93.66;98635.44;5071533;28;20554;-49
2024/03/05 05:55:52;;;;;;;19.20;14.32;;;;;;;7.39;93.63;98639.84;5071543;28;20112;-49
2024/03/05 05:58:18;;;;;;;15.20;13.40;;;;;;;7.33;93.48;98634.53;5071402;28;20028;-49
2024/03/05 06:00:44;;;;;;;24.98;19.48;;;;;;;7.23;94.28;98641.84;5070203;28;20035;-49
2024/03/05 06:03:11;;;;;;;14.52;12.27;;;;;;;7.10;94.45;98645.03;5071499;28;20066;-49
2024/03/05 06:05:37;;;;;;;94.68;86.35;;;;;;;6.97;94.64;98635.22;5070162;28;20031;-49
2024/03/05 06:08:10;;;;;;;22.65;19.60;;;;;;;6.77;94.05;98637.53;5071644;28;20032;-49
2024/03/05 06:10:36;;;;;;;17.83;13.52;;;;;;;6.67;94.31;98636.97;5071388;28;20466;-49
2024/03/05 06:13:02;;;;;;;17.80;15.77;;;;;;;6.68;95.28;98642.03;5075403;28;20111;-49
2024/03/05 06:15:29;;;;;;;36.53;32.65;;;;;;;6.86;95.59;98644.31;5075193;28;20047;-49
2024/03/05 06:17:55;;;;;;;31.02;27.77;;;;;;;6.89;94.31;98643.16;5075408;28;20028;-48
2024/03/05 06:20:21;;;;;;;24.52;21.65;;;;;;;6.88;94.54;98655.38;5075468;28;20548;-49
2024/03/05 06:22:48;;;;;;;14.52;10.90;;;;;;;6.91;94.69;98659.44;5075124;28;20032;-49
2024/03/05 06:25:18;;;;;;;16.42;11.88;;;;;;;6.82;93.86;98663.09;5075067;28;20028;-49
2024/03/05 06:27:44;;;;;;;15.55;10.20;;;;;;;6.69;93.68;98654.06;5074023;28;20509;-49
2024/03/05 06:30:19;;;;;;;11.65;10.30;;;;;;;6.59;93.17;98663.94;5074983;28;20541;-49
2024/03/05 06:32:47;;;;;;;18.83;10.70;;;;;;;6.59;93.99;98658.72;5074987;28;20028;-49
2024/03/05 06:35:17;;;;;;;16.75;12.00;;;;;;;6.63;93.69;98656.56;5074880;28;20464;-48
2024/03/05 06:37:44;;;;;;;16.08;12.27;;;;;;;6.72;92.77;98660.72;5074500;28;20060;-49
2024/03/05 06:40:16;;;;;;;14.00;10.32;;;;;;;7.02;94.27;98663.41;5073491;28;20115;-49
2024/03/05 06:42:43;;;;;;;16.63;10.48;;;;;;;8.09;91.44;98655.13;5074804;28;20020;-49
2024/03/05 06:45:14;;;;;;;12.85;10.45;;;;;;;8.63;85.53;98659.88;5074954;28;20160;-49
2024/03/05 06:47:43;;;;;;;13.70;11.20;;;;;;;8.40;83.69;98665.28;5074703;28;20029;-49
2024/03/05 06:50:19;;;;;;;14.77;10.57;;;;;;;8.31;85.90;98659.38;5074589;28;20020;-49
2024/03/05 06:58:12;;;;;;;15.10;11.65;;;;;;;8.09;82.52;98671.63;5074499;28;20517;-49
2024/03/05 07:00:38;;;;;;;14.25;11.07;;;;;;;7.89;82.63;98660.16;5074540;28;20028;-49
2024/03/05 07:03:06;;;;;;;15.68;11.18;;;;;;;7.77;83.04;98662.41;5073411;28;20043;-48
2024/03/05 07:05:32;;;;;;;22.23;10.93;;;;;;;7.82;82.92;98660.06;5074286;28;20039;-49
2024/03/05 07:08:00;;;;;;;15.20;10.23;;;;;;;8.03;83.64;98653.25;5073081;28;20021;-49
2024/03/05 07:10:28;;;;;;;15.25;10.48;;;;;;;8.22;83.17;98654.47;5074264;28;20017;-49
2024/03/05 07:12:55;;;;;;;12.45;9.93;;;;;;;8.43;82.09;98651.91;5074205;28;20032;-49
2024/03/05 07:15:21;;;;;;;13.75;9.63;;;;;;;8.58;80.98;98643.97;5074098;28;20036;-47
2024/03/05 07:17:48;;;;;;;15.45;10.07;;;;;;;9.46;81.09;98648.81;5074350;28;20086;-47
2024/03/05 07:20:24;;;;;;;12.90;9.40;;;;;;;11.11;78.33;98646.72;5072764;28;20498;-48
2024/03/05 07:22:51;;;;;;;14.50;9.32;;;;;;;11.73;69.91;98653.22;5073052;28;20036;-47
2024/03/05 07:25:18;;;;;;;12.15;9.65;;;;;;;11.83;67.13;98644.88;5073996;28;20028;-49
2024/03/05 07:27:45;;;;;;;11.43;9.57;;;;;;;12.06;65.92;98652.28;5074000;28;20406;-49
2024/03/05 07:30:17;;;;;;;13.20;9.73;;;;;;;12.56;65.40;98659.47;5073910;28;20486;-49
2024/03/05 07:32:47;;;;;;;15.52;9.13;;;;;;;13.26;64.76;98661.91;5073900;28;20036;-49
2024/03/05 07:35:20;;;;;;;15.68;10.38;;;;;;;14.23;63.86;98669.09;5074089;28;20110;-49
2024/03/05 07:37:46;;;;;;;13.25;10.55;;;;;;;15.10;61.20;98675.72;5073558;28;20116;-49
2024/03/05 07:40:16;;;;;;;14.02;10.02;;;;;;;16.24;59.11;98674.34;5072341;28;20044;-49
2024/03/05 07:42:53;;;;;;;17.70;10.02;;;;;;;17.22;54.79;98674.91;5072625;28;20035;-49
2024/03/05 07:45:20;;;;;;;16.73;10.13;;;;;;;17.99;52.52;98672.44;5073603;28;20020;-47
2024/03/05 07:47:49;;;;;;;18.50;10.23;;;;;;;18.06;47.70;98675.72;5073628;28;20494;-47
2024/03/05 07:50:16;;;;;;;21.17;9.98;;;;;;;17.40;47.93;98691.59;5073526;28;20537;-46
2024/03/05 07:52:50;;;;;;;14.13;9.45;;;;;;;16.70;49.10;98698.97;5073494;28;20052;-46
2024/03/05 07:55:18;;;;;;;13.10;10.10;;;;;;;16.62;50.34;98694.91;5073405;28;20390;-47
2024/03/05 07:57:45;;;;;;;15.32;10.35;;;;;;;17.22;49.15;98696.13;5073292;28;20027;-47
2024/03/05 08:00:13;;;;;;;13.70;10.13;;;;;;;17.64;48.56;98697.47;5073272;28;20058;-47
2024/03/05 08:02:46;;;;;;;13.48;8.98;;;;;;;18.05;47.60;98690.84;5073222;28;20020;-47
2024/03/05 08:05:21;;;;;;;12.38;9.13;;;;;;;18.60;46.61;98688.19;5073207;28;20089;-47
2024/03/05 08:07:49;;;;;;;11.90;10.57;;;;;;;18.86;44.84;98692.69;5073460;28;20032;-47
2024/03/05 08:10:16;;;;;;;35.75;31.67;;;;;;;18.12;45.59;98685.34;5072975;28;20107;-47
2024/03/05 08:12:44;;;;;;;19.73;14.85;;;;;;;17.11;47.26;98694.38;5072961;28;20103;-47
2024/03/05 08:15:15;;;;;;;15.52;11.10;;;;;;;16.48;48.70;98702.34;5073261;28;20032;-47
2024/03/05 08:17:45;;;;;;;23.70;11.48;;;;;;;16.22;50.30;98708.19;5072936;28;20047;-47
2024/03/05 08:20:15;;;;;;;22.52;11.40;;;;;;;16.00;50.78;98705.41;5072911;28;20039;-47
2024/03/05 08:22:43;;;;;;;19.83;10.60;;;;;;;15.88;50.98;98706.25;5071867;28;20040;-47
2024/03/05 08:25:15;;;;;;;19.00;11.10;;;;;;;15.91;51.65;98708.41;5071706;28;20035;-47
2024/03/05 08:27:56;;;;;;;23.83;13.25;;;;;;;16.89;49.96;98708.34;5072996;28;20052;-47
2024/03/05 08:30:24;;;;;;;37.30;13.35;;;;;;;17.57;49.05;98693.16;5071697;28;20109;-47
2024/03/05 08:32:52;;;;;;;25.50;17.75;;;;;;;17.89;46.98;98689.06;5072613;28;20604;-47
2024/03/05 08:35:18;;;;;;;15.80;12.13;;;;;;;17.88;47.82;98684.81;5072361;28;20035;-47
2024/03/05 08:37:46;;;;;;;24.38;13.38;;;;;;;18.53;46.99;98686.56;5071124;28;20502;-47
2024/03/05 08:40:19;;;;;;;24.30;14.02;;;;;;;18.52;45.29;98684.94;5072523;28;20039;-47
2024/03/05 08:42:47;;;;;;;15.95;12.90;;;;;;;18.97;45.00;98688.25;5072540;28;20029;-47
2024/03/05 08:45:23;;;;;;;14.57;9.40;;;;;;;19.58;42.75;98690.50;5072362;28;20158;-47
2024/03/05 08:47:52;;;;;;;13.90;8.93;;;;;;;19.02;40.79;98684.84;5071550;28;20123;-47
2024/03/05 08:50:19;;;;;;;11.27;8.63;;;;;;;18.52;42.99;98697.41;5071460;28;20059;-47
2024/03/05 08:52:45;;;;;;;14.85;10.15;;;;;;;18.92;42.52;98697.00;5072314;28;20060;-47
2024/03/05 08:55:13;;;;;;;9.45;8.20;;;;;;;20.03;40.29;98699.75;5072169;28;20032;-47
2024/03/05 08:57:39;;;;;;;9.18;7.63;;;;;;;21.07;36.90;98702.28;5072752;28;20478;-47
2024/03/05 09:00:14;;;;;;;12.32;8.07;;;;;;;21.83;36.75;98707.72;5072232;28;20039;-47
2024/03/05 09:02:49;;;;;;;10.30;6.93;;;;;;;22.77;35.53;98697.03;5072243;28;20028;-47
2024/03/05 09:05:15;;;;;;;11.73;7.60;;;;;;;23.22;35.59;98697.75;5072210;28;20028;-47
2024/03/05 09:07:42;;;;;;;14.40;8.20;;;;;;;23.02;35.42;98689.88;5071134;28;20047;-47
2024/03/05 09:10:10;;;;;;;12.93;8.80;;;;;;;22.27;35.65;98699.00;5070751;28;20028;-47
2024/03/05 09:12:36;;;;;;;17.08;7.82;;;;;;;21.77;36.42;98703.47;5072275;28;20481;-47
2024/03/05 09:15:05;;;;;;;9.07;6.95;;;;;;;21.84;36.03;98694.09;5070691;28;20031;-47
2024/03/05 09:17:33;;;;;;;10.20;5.63;;;;;;;23.28;34.13;98685.06;5072034;28;20107;-48
2024/03/05 09:19:59;;;;;;;21.02;14.15;;;;;;;24.03;32.75;98689.06;5070590;28;20024;-48
2024/03/05 09:22:25;;;;;;;20.50;14.75;;;;;;;25.04;31.92;98685.13;5070536;28;20028;-48
2024/03/05 09:24:51;;;;;;;25.90;23.20;;;;;;;25.95;30.66;98672.94;5071812;28;20059;-47
2024/03/05 09:27:16;;;;;;;10.30;6.70;;;;;;;25.71;30.16;98679.31;5071832;28;20024;-48
2024/03/05 09:29:43;;;;;;;14.00;6.20;;;;;;;25.44;30.67;98683.59;5071968;28;20565;-47
2024/03/05 09:32:10;;;;;;;9.35;6.82;;;;;;;26.09;29.01;98676.38;5071656;28;20115;-47
2024/03/05 09:34:38;;;;;;;8.80;5.55;;;;;;;26.54;28.58;98671.06;5070390;28;20025;-47
2024/03/05 09:37:05;;;;;;;13.00;5.60;;;;;;;26.53;28.20;98677.53;5071483;28;20070;-48
2024/03/05 09:39:31;;;;;;;15.65;5.57;;;;;;;25.40;28.74;98684.50;5071633;28;20032;-47
2024/03/05 09:41:56;;;;;;;13.23;4.93;;;;;;;24.57;29.76;98693.16;5070382;28;20036;-47
2024/03/05 09:44:24;;;;;;;9.55;5.13;;;;;;;24.01;30.22;98692.03;5070437;28;20034;-47
2024/03/05 09:46:50;;;;;;;7.57;5.45;;;;;;;23.50;31.05;98693.44;5075035;28;20582;-47
2024/03/05 09:49:16;;;;;;;6.85;4.57;;;;;;;23.60;31.73;98689.03;5060300;28;20021;-47
2024/03/05 09:51:43;;;;;;;8.50;4.68;;;;;;;23.83;31.00;98693.59;5078558;28;20032;-47
2024/03/05 09:54:12;;;;;;;7.13;4.45;;;;;;;23.59;30.94;98682.09;5078265;28;20107;-47
2024/03/05 09:56:44;;;;;;;6.60;4.72;;;;;;;23.26;31.34;98689.91;5078210;28;20107;-47
2024/03/05 09:59:17;;;;;;;7.47;3.92;;;;;;;23.05;31.85;98686.66;5078031;28;20028;-47
2024/03/05 10:01:45;;;;;;;11.80;4.80;;;;;;;23.85;31.36;98682.59;5076860;28;20036;-47
2024/03/05 10:04:16;;;;;;;15.93;5.00;;;;;;;24.48;30.13;98679.53;5078171;28;20032;-47
2024/03/05 10:06:48;;;;;;;10.23;4.53;;;;;;;24.00;29.87;98679.69;5078158;28;20490;-47
2024/03/05 10:09:17;;;;;;;12.15;4.10;;;;;;;24.00;29.57;98687.75;5078102;28;20028;-47
2024/03/05 10:11:45;;;;;;;8.30;3.55;;;;;;;24.31;30.06;98690.03;5076835;28;20082;-47
2024/03/05 10:14:11;;;;;;;7.28;3.03;;;;;;;24.30;29.60;98680.38;5060215;28;20456;-47
2024/03/05 10:16:38;;;;;;;13.50;3.97;;;;;;;23.52;30.75;98682.41;5076694;28;20471;-47
2024/03/05 10:19:24;;;;;;;7.07;3.00;;;;;;;22.60;31.33;98677.94;5076662;28;20032;-47
2024/03/05 10:21:50;;;;;;;17.70;3.00;;;;;;;21.56;31.94;98692.06;5077715;28;20040;-47
2024/03/05 10:24:28;;;;;;;14.90;2.78;;;;;;;20.65;33.39;98689.25;5076643;28;20540;-47
2024/03/05 10:26:54;;;;;;;8.95;2.28;;;;;;;20.53;33.62;98686.78;5076658;28;20100;-47
2024/03/05 10:29:20;;;;;;;11.80;2.97;;;;;;;20.27;33.70;98693.94;5078270;28;20052;-46
2024/03/05 10:31:46;;;;;;;5.95;2.25;;;;;;;19.77;34.04;98690.84;5078164;28;20047;-47
2024/03/05 10:34:16;;;;;;;9.85;2.35;;;;;;;19.31;35.06;98693.25;5077867;28;20032;-46
2024/03/05 10:36:42;;;;;;;13.90;3.30;;;;;;;19.05;35.62;98690.41;5076255;28;20032;-47
2024/03/05 10:39:12;;;;;;;7.55;3.08;;;;;;;18.64;36.23;98692.75;5077759;28;20099;-47
2024/03/05 10:41:40;;;;;;;10.13;2.50;;;;;;;18.30;36.80;98692.16;5076919;28;20125;-47
2024/03/05 10:44:13;;;;;;;5.05;2.70;;;;;;;18.01;37.29;98697.72;5076811;28;20036;-47
2024/03/05 10:46:41;;;;;;;10.05;2.55;;;;;;;17.67;37.81;98692.50;5078028;28;20040;-47
2024/03/05 10:49:08;;;;;;;7.47;1.65;;;;;;;17.51;37.99;98685.38;5077776;28;20048;-47
2024/03/05 10:51:41;;;;;;;12.07;2.78;;;;;;;17.33;38.99;98689.91;5076453;28;20455;-47
2024/03/05 10:54:07;;;;;;;5.47;1.90;;;;;;;16.97;38.57;98689.38;5077681;28;20040;-47
2024/03/05 10:56:35;;;;;;;3.03;1.35;;;;;;;16.61;38.88;98685.34;5077718;28;20060;-47
2024/03/05 11:01:45;;;;;;;2.55;0.90;;;;;;;16.02;41.04;98698.03;5074546;28;20111;-47
2024/03/05 11:04:13;;;;;;;2.40;1.15;;;;;;;15.54;41.46;98692.03;5074357;28;20059;-46
2024/03/05 11:06:42;;;;;;;5.80;1.25;;;;;;;14.91;44.51;98696.97;5073274;28;20559;-46
2024/03/05 11:09:15;;;;;;;7.93;2.90;;;;;;;14.46;46.40;98697.41;5074533;28;20024;-47
2024/03/05 11:11:49;;;;;;;3.33;1.38;;;;;;;13.92;48.88;98707.88;5074196;28;20394;-47
2024/03/05 11:14:15;;;;;;;7.50;1.05;;;;;;;12.90;54.26;98718.75;5074298;28;20035;-45
2024/03/05 11:16:45;;;;;;;10.13;1.65;;;;;;;11.38;61.81;98753.34;5074126;28;20109;-48
2024/03/05 11:19:13;;;;;;;21.98;16.85;;;;;;;10.36;68.45;98739.53;5074035;28;20479;-47
2024/03/05 11:21:41;;;;;;;18.45;3.80;;;;;;;9.81;73.76;98757.00;5074252;28;20032;-47
2024/03/05 11:24:07;;;;;;;12.18;2.33;;;;;;;9.31;77.36;98743.19;5074046;28;20035;-47
2024/03/05 11:26:34;;;;;;;5.88;1.73;;;;;;;9.05;81.85;98741.16;5072802;28;20527;-48
2024/03/05 11:29:29;;;;;;;12.25;7.43;;;;;;;9.04;88.11;98737.75;5074226;28;20475;-48
2024/03/05 11:31:55;;;;;;;10.50;6.97;;;;;;;9.18;92.93;98742.09;5072560;28;20120;-47
2024/03/05 11:34:21;;;;;;;6.22;3.63;;;;;;;9.42;96.63;98744.47;5074190;28;20447;-47
2024/03/05 11:37:09;;;;;;;3.90;2.40;;;;;;;9.33;97.04;98741.19;5073608;28;20544;-47